sensor_id;sensor_type;location;lat;lon;timestamp;P1;durP1;ratioP1;P2;durP2;ratioP2
35648;SDS011;21768;48.562;13.414;2022-10-22T00:00:49;23.80;;;12.60;;
35648;SDS011;21768;48.562;13.414;2022-10-22T00:03:14;42.97;;;12.95;;
35648;SDS011;21768;48.562;13.414;2022-10-22T00:05:40;26.30;;;13.05;;
35648;SDS011;21768;48.562;13.414;2022-10-22T00:08:05;26.15;;;12.15;;
35648;SDS011;21768;48.562;13.414;2022-10-22T00:10:30;25.83;;;14.10;;
35648;SDS011;21768;48.562;13.414;2022-10-22T00:12:56;36.83;;;17.58;;
35648;SDS011;21768;48.562;13.414;2022-10-22T00:15:21;40.60;;;20.65;;
35648;SDS011;21768;48.562;13.414;2022-10-22T00:17:47;29.80;;;15.15;;
35648;SDS011;21768;48.562;13.414;2022-10-22T00:20:13;28.73;;;13.57;;
35648;SDS011;21768;48.562;13.414;2022-10-22T00:22:39;30.02;;;11.98;;
35648;SDS011;21768;48.562;13.414;2022-10-22T00:25:04;24.17;;;11.68;;
35648;SDS011;21768;48.562;13.414;2022-10-22T00:27:30;19.45;;;11.23;;
35648;SDS011;21768;48.562;13.414;2022-10-22T00:29:55;23.13;;;12.40;;
35648;SDS011;21768;48.562;13.414;2022-10-22T00:32:21;24.35;;;11.75;;
35648;SDS011;21768;48.562;13.414;2022-10-22T00:34:46;23.60;;;12.70;;
35648;SDS011;21768;48.562;13.414;2022-10-22T00:37:11;25.55;;;12.50;;
35648;SDS011;21768;48.562;13.414;2022-10-22T00:39:37;26.23;;;12.55;;
35648;SDS011;21768;48.562;13.414;2022-10-22T00:42:02;22.85;;;12.88;;
35648;SDS011;21768;48.562;13.414;2022-10-22T00:47:32;24.85;;;12.75;;
35648;SDS011;21768;48.562;13.414;2022-10-22T00:49:58;25.90;;;12.05;;
35648;SDS011;21768;48.562;13.414;2022-10-22T00:52:25;27.25;;;12.10;;
35648;SDS011;21768;48.562;13.414;2022-10-22T00:54:51;23.08;;;12.63;;
35648;SDS011;21768;48.562;13.414;2022-10-22T00:57:17;26.55;;;12.60;;
35648;SDS011;21768;48.562;13.414;2022-10-22T00:59:44;26.15;;;12.88;;
35648;SDS011;21768;48.562;13.414;2022-10-22T01:02:10;24.83;;;13.60;;
35648;SDS011;21768;48.562;13.414;2022-10-22T01:04:35;31.08;;;13.07;;
35648;SDS011;21768;48.562;13.414;2022-10-22T01:07:01;25.65;;;12.93;;
35648;SDS011;21768;48.562;13.414;2022-10-22T01:20:44;25.55;;;12.85;;
35648;SDS011;21768;48.562;13.414;2022-10-22T01:23:20;23.38;;;13.02;;
35648;SDS011;21768;48.562;13.414;2022-10-22T01:31:18;34.08;;;13.25;;
35648;SDS011;21768;48.562;13.414;2022-10-22T01:33:47;22.23;;;12.85;;
35648;SDS011;21768;48.562;13.414;2022-10-22T01:36:15;30.55;;;13.95;;
35648;SDS011;21768;48.562;13.414;2022-10-22T01:38:43;26.67;;;13.43;;
35648;SDS011;21768;48.562;13.414;2022-10-22T01:41:11;31.33;;;13.77;;
35648;SDS011;21768;48.562;13.414;2022-10-22T01:43:36;24.67;;;13.40;;
35648;SDS011;21768;48.562;13.414;2022-10-22T01:46:02;32.90;;;13.77;;
35648;SDS011;21768;48.562;13.414;2022-10-22T01:59:33;28.08;;;12.23;;
35648;SDS011;21768;48.562;13.414;2022-10-22T02:05:11;22.40;;;12.48;;
35648;SDS011;21768;48.562;13.414;2022-10-22T02:07:51;24.83;;;12.52;;
35648;SDS011;21768;48.562;13.414;2022-10-22T02:10:21;27.65;;;14.63;;
35648;SDS011;21768;48.562;13.414;2022-10-22T02:12:49;25.90;;;13.77;;
35648;SDS011;21768;48.562;13.414;2022-10-22T02:15:18;28.58;;;13.85;;
35648;SDS011;21768;48.562;13.414;2022-10-22T02:17:46;31.30;;;12.85;;
35648;SDS011;21768;48.562;13.414;2022-10-22T02:20:13;27.25;;;12.23;;
35648;SDS011;21768;48.562;13.414;2022-10-22T02:22:42;24.98;;;14.05;;
35648;SDS011;21768;48.562;13.414;2022-10-22T02:25:09;29.35;;;14.82;;
35648;SDS011;21768;48.562;13.414;2022-10-22T02:27:46;25.63;;;13.18;;
35648;SDS011;21768;48.562;13.414;2022-10-22T02:30:19;30.45;;;14.05;;
35648;SDS011;21768;48.562;13.414;2022-10-22T02:33:03;24.17;;;13.63;;
35648;SDS011;21768;48.562;13.414;2022-10-22T02:35:34;26.55;;;14.13;;
35648;SDS011;21768;48.562;13.414;2022-10-22T02:38:01;24.27;;;13.73;;
35648;SDS011;21768;48.562;13.414;2022-10-22T02:40:28;22.05;;;13.55;;
35648;SDS011;21768;48.562;13.414;2022-10-22T02:42:55;28.40;;;13.00;;
35648;SDS011;21768;48.562;13.414;2022-10-22T02:45:20;32.05;;;13.02;;
35648;SDS011;21768;48.562;13.414;2022-10-22T02:47:46;23.25;;;12.05;;
35648;SDS011;21768;48.562;13.414;2022-10-22T02:50:12;24.13;;;12.13;;
35648;SDS011;21768;48.562;13.414;2022-10-22T02:52:38;31.23;;;12.48;;
35648;SDS011;21768;48.562;13.414;2022-10-22T02:55:04;29.73;;;13.05;;
35648;SDS011;21768;48.562;13.414;2022-10-22T02:57:30;25.65;;;12.80;;
35648;SDS011;21768;48.562;13.414;2022-10-22T02:59:56;24.10;;;13.38;;
35648;SDS011;21768;48.562;13.414;2022-10-22T03:02:21;24.40;;;12.65;;
35648;SDS011;21768;48.562;13.414;2022-10-22T03:04:46;28.98;;;14.45;;
35648;SDS011;21768;48.562;13.414;2022-10-22T03:07:12;27.13;;;13.25;;
35648;SDS011;21768;48.562;13.414;2022-10-22T03:09:37;23.92;;;12.38;;
35648;SDS011;21768;48.562;13.414;2022-10-22T03:12:03;24.42;;;12.18;;
35648;SDS011;21768;48.562;13.414;2022-10-22T03:14:29;34.22;;;12.65;;
35648;SDS011;21768;48.562;13.414;2022-10-22T03:16:54;28.25;;;13.73;;
35648;SDS011;21768;48.562;13.414;2022-10-22T03:19:19;33.38;;;15.50;;
35648;SDS011;21768;48.562;13.414;2022-10-22T03:24:23;25.20;;;14.32;;
35648;SDS011;21768;48.562;13.414;2022-10-22T03:26:52;28.77;;;16.50;;
35648;SDS011;21768;48.562;13.414;2022-10-22T03:29:19;30.85;;;15.00;;
35648;SDS011;21768;48.562;13.414;2022-10-22T03:31:47;27.52;;;15.23;;
35648;SDS011;21768;48.562;13.414;2022-10-22T03:34:13;26.50;;;15.23;;
35648;SDS011;21768;48.562;13.414;2022-10-22T03:36:39;27.13;;;15.82;;
35648;SDS011;21768;48.562;13.414;2022-10-22T03:39:05;28.42;;;15.05;;
35648;SDS011;21768;48.562;13.414;2022-10-22T03:41:31;24.35;;;14.52;;
35648;SDS011;21768;48.562;13.414;2022-10-22T03:43:58;34.92;;;15.35;;
35648;SDS011;21768;48.562;13.414;2022-10-22T03:46:24;23.83;;;13.98;;
35648;SDS011;21768;48.562;13.414;2022-10-22T03:48:50;37.30;;;15.15;;
35648;SDS011;21768;48.562;13.414;2022-10-22T03:51:15;29.55;;;15.23;;
35648;SDS011;21768;48.562;13.414;2022-10-22T03:53:41;24.42;;;14.05;;
35648;SDS011;21768;48.562;13.414;2022-10-22T03:56:07;21.63;;;13.85;;
35648;SDS011;21768;48.562;13.414;2022-10-22T03:58:36;31.15;;;15.00;;
35648;SDS011;21768;48.562;13.414;2022-10-22T04:01:07;30.70;;;15.00;;
35648;SDS011;21768;48.562;13.414;2022-10-22T04:03:34;28.23;;;14.75;;
35648;SDS011;21768;48.562;13.414;2022-10-22T04:06:01;34.33;;;14.32;;
35648;SDS011;21768;48.562;13.414;2022-10-22T04:08:30;32.75;;;15.18;;
35648;SDS011;21768;48.562;13.414;2022-10-22T04:10:55;37.92;;;17.05;;
35648;SDS011;21768;48.562;13.414;2022-10-22T04:13:21;40.63;;;19.55;;
35648;SDS011;21768;48.562;13.414;2022-10-22T04:15:46;31.73;;;16.23;;
35648;SDS011;21768;48.562;13.414;2022-10-22T04:18:11;33.75;;;17.33;;
35648;SDS011;21768;48.562;13.414;2022-10-22T04:20:37;31.70;;;16.63;;
35648;SDS011;21768;48.562;13.414;2022-10-22T04:23:02;34.80;;;16.67;;
35648;SDS011;21768;48.562;13.414;2022-10-22T04:25:27;38.00;;;19.77;;
35648;SDS011;21768;48.562;13.414;2022-10-22T04:27:53;36.15;;;17.92;;
35648;SDS011;21768;48.562;13.414;2022-10-22T04:30:18;38.90;;;17.33;;
35648;SDS011;21768;48.562;13.414;2022-10-22T04:32:43;31.77;;;16.33;;
35648;SDS011;21768;48.562;13.414;2022-10-22T04:35:09;36.95;;;17.63;;
35648;SDS011;21768;48.562;13.414;2022-10-22T04:37:34;29.63;;;15.80;;
35648;SDS011;21768;48.562;13.414;2022-10-22T04:40:00;28.48;;;15.75;;
35648;SDS011;21768;48.562;13.414;2022-10-22T04:42:25;27.33;;;15.15;;
35648;SDS011;21768;48.562;13.414;2022-10-22T04:44:51;29.20;;;15.80;;
35648;SDS011;21768;48.562;13.414;2022-10-22T04:47:16;31.23;;;16.70;;
35648;SDS011;21768;48.562;13.414;2022-10-22T04:49:41;31.35;;;16.90;;
35648;SDS011;21768;48.562;13.414;2022-10-22T04:52:07;34.88;;;16.48;;
35648;SDS011;21768;48.562;13.414;2022-10-22T04:54:32;30.30;;;15.88;;
35648;SDS011;21768;48.562;13.414;2022-10-22T04:56:57;37.35;;;19.63;;
35648;SDS011;21768;48.562;13.414;2022-10-22T04:59:23;30.65;;;17.58;;
35648;SDS011;21768;48.562;13.414;2022-10-22T05:01:48;33.58;;;18.52;;
35648;SDS011;21768;48.562;13.414;2022-10-22T05:04:14;35.65;;;19.60;;
35648;SDS011;21768;48.562;13.414;2022-10-22T05:06:41;35.65;;;18.90;;
35648;SDS011;21768;48.562;13.414;2022-10-22T05:09:08;36.00;;;19.80;;
35648;SDS011;21768;48.562;13.414;2022-10-22T05:11:37;35.85;;;19.95;;
35648;SDS011;21768;48.562;13.414;2022-10-22T05:14:05;37.33;;;20.73;;
35648;SDS011;21768;48.562;13.414;2022-10-22T05:16:32;40.47;;;20.52;;
35648;SDS011;21768;48.562;13.414;2022-10-22T05:18:58;40.38;;;20.58;;
35648;SDS011;21768;48.562;13.414;2022-10-22T05:21:25;41.00;;;20.20;;
35648;SDS011;21768;48.562;13.414;2022-10-22T05:23:51;38.20;;;19.50;;
35648;SDS011;21768;48.562;13.414;2022-10-22T05:26:19;38.63;;;20.02;;
35648;SDS011;21768;48.562;13.414;2022-10-22T05:28:47;41.53;;;21.65;;
35648;SDS011;21768;48.562;13.414;2022-10-22T05:31:13;38.42;;;20.15;;
35648;SDS011;21768;48.562;13.414;2022-10-22T05:33:40;41.17;;;21.83;;
35648;SDS011;21768;48.562;13.414;2022-10-22T05:36:07;45.78;;;22.73;;
35648;SDS011;21768;48.562;13.414;2022-10-22T05:38:35;37.05;;;22.10;;
35648;SDS011;21768;48.562;13.414;2022-10-22T05:41:01;40.10;;;23.05;;
35648;SDS011;21768;48.562;13.414;2022-10-22T05:43:31;37.83;;;21.75;;
35648;SDS011;21768;48.562;13.414;2022-10-22T05:46:00;37.83;;;21.77;;
35648;SDS011;21768;48.562;13.414;2022-10-22T05:48:27;40.40;;;22.88;;
35648;SDS011;21768;48.562;13.414;2022-10-22T05:50:53;42.83;;;21.95;;
35648;SDS011;21768;48.562;13.414;2022-10-22T05:53:18;42.38;;;23.45;;
35648;SDS011;21768;48.562;13.414;2022-10-22T05:55:44;44.95;;;23.58;;
35648;SDS011;21768;48.562;13.414;2022-10-22T05:58:10;47.90;;;22.15;;
35648;SDS011;21768;48.562;13.414;2022-10-22T06:00:36;45.40;;;24.08;;
35648;SDS011;21768;48.562;13.414;2022-10-22T06:03:02;42.30;;;23.05;;
35648;SDS011;21768;48.562;13.414;2022-10-22T06:05:27;43.00;;;21.75;;
35648;SDS011;21768;48.562;13.414;2022-10-22T06:07:53;42.88;;;23.42;;
35648;SDS011;21768;48.562;13.414;2022-10-22T06:10:20;38.17;;;22.83;;
35648;SDS011;21768;48.562;13.414;2022-10-22T06:12:46;48.80;;;23.83;;
35648;SDS011;21768;48.562;13.414;2022-10-22T06:15:13;37.53;;;22.13;;
35648;SDS011;21768;48.562;13.414;2022-10-22T06:17:39;37.80;;;22.10;;
35648;SDS011;21768;48.562;13.414;2022-10-22T06:20:05;37.80;;;22.17;;
35648;SDS011;21768;48.562;13.414;2022-10-22T06:22:31;61.42;;;23.38;;
35648;SDS011;21768;48.562;13.414;2022-10-22T06:24:57;37.95;;;21.85;;
35648;SDS011;21768;48.562;13.414;2022-10-22T06:27:22;42.30;;;22.10;;
35648;SDS011;21768;48.562;13.414;2022-10-22T06:29:48;43.85;;;23.08;;
35648;SDS011;21768;48.562;13.414;2022-10-22T06:32:13;40.20;;;22.45;;
35648;SDS011;21768;48.562;13.414;2022-10-22T06:34:38;41.95;;;23.08;;
35648;SDS011;21768;48.562;13.414;2022-10-22T06:37:04;41.55;;;22.27;;
35648;SDS011;21768;48.562;13.414;2022-10-22T06:39:29;40.15;;;22.67;;
35648;SDS011;21768;48.562;13.414;2022-10-22T06:41:55;38.88;;;21.75;;
35648;SDS011;21768;48.562;13.414;2022-10-22T06:44:20;38.17;;;21.85;;
35648;SDS011;21768;48.562;13.414;2022-10-22T06:46:50;41.63;;;24.25;;
35648;SDS011;21768;48.562;13.414;2022-10-22T06:49:16;48.75;;;24.08;;
35648;SDS011;21768;48.562;13.414;2022-10-22T06:51:42;42.58;;;20.80;;
35648;SDS011;21768;48.562;13.414;2022-10-22T06:54:08;43.42;;;23.17;;
35648;SDS011;21768;48.562;13.414;2022-10-22T06:56:34;44.10;;;22.17;;
35648;SDS011;21768;48.562;13.414;2022-10-22T06:58:59;34.25;;;18.95;;
35648;SDS011;21768;48.562;13.414;2022-10-22T07:01:26;38.50;;;17.95;;
35648;SDS011;21768;48.562;13.414;2022-10-22T07:03:53;37.13;;;20.48;;
35648;SDS011;21768;48.562;13.414;2022-10-22T07:06:19;28.70;;;16.83;;
35648;SDS011;21768;48.562;13.414;2022-10-22T07:08:46;37.97;;;20.75;;
35648;SDS011;21768;48.562;13.414;2022-10-22T07:11:13;46.10;;;23.65;;
35648;SDS011;21768;48.562;13.414;2022-10-22T07:13:39;42.08;;;21.70;;
35648;SDS011;21768;48.562;13.414;2022-10-22T07:16:05;38.58;;;21.70;;
35648;SDS011;21768;48.562;13.414;2022-10-22T07:18:31;39.33;;;22.10;;
35648;SDS011;21768;48.562;13.414;2022-10-22T07:20:57;37.67;;;21.65;;
35648;SDS011;21768;48.562;13.414;2022-10-22T07:23:23;35.47;;;20.92;;
35648;SDS011;21768;48.562;13.414;2022-10-22T07:25:49;41.15;;;21.27;;
35648;SDS011;21768;48.562;13.414;2022-10-22T07:28:15;45.17;;;23.92;;
35648;SDS011;21768;48.562;13.414;2022-10-22T07:33:40;40.72;;;22.90;;
35648;SDS011;21768;48.562;13.414;2022-10-22T07:36:07;34.28;;;19.08;;
35648;SDS011;21768;48.562;13.414;2022-10-22T07:38:35;31.30;;;18.63;;
35648;SDS011;21768;48.562;13.414;2022-10-22T07:41:01;25.90;;;15.75;;
35648;SDS011;21768;48.562;13.414;2022-10-22T07:43:27;39.08;;;19.08;;
35648;SDS011;21768;48.562;13.414;2022-10-22T07:45:52;16.85;;;11.00;;
35648;SDS011;21768;48.562;13.414;2022-10-22T07:48:20;21.52;;;12.82;;
35648;SDS011;21768;48.562;13.414;2022-10-22T07:50:47;26.73;;;13.35;;
35648;SDS011;21768;48.562;13.414;2022-10-22T07:53:14;23.17;;;12.90;;
35648;SDS011;21768;48.562;13.414;2022-10-22T07:55:40;19.23;;;10.32;;
35648;SDS011;21768;48.562;13.414;2022-10-22T07:58:05;20.27;;;11.40;;
35648;SDS011;21768;48.562;13.414;2022-10-22T08:00:30;15.32;;;9.57;;
35648;SDS011;21768;48.562;13.414;2022-10-22T08:02:56;14.80;;;9.48;;
35648;SDS011;21768;48.562;13.414;2022-10-22T08:05:21;17.05;;;9.75;;
35648;SDS011;21768;48.562;13.414;2022-10-22T08:07:46;15.07;;;10.27;;
35648;SDS011;21768;48.562;13.414;2022-10-22T08:10:12;17.10;;;10.25;;
35648;SDS011;21768;48.562;13.414;2022-10-22T08:12:37;16.20;;;10.10;;
35648;SDS011;21768;48.562;13.414;2022-10-22T08:15:03;17.05;;;11.98;;
35648;SDS011;21768;48.562;13.414;2022-10-22T08:17:30;17.10;;;10.27;;
35648;SDS011;21768;48.562;13.414;2022-10-22T08:19:55;18.67;;;10.43;;
35648;SDS011;21768;48.562;13.414;2022-10-22T08:22:21;15.45;;;9.95;;
35648;SDS011;21768;48.562;13.414;2022-10-22T08:24:46;17.60;;;10.38;;
35648;SDS011;21768;48.562;13.414;2022-10-22T08:27:11;21.13;;;11.38;;
35648;SDS011;21768;48.562;13.414;2022-10-22T08:29:37;19.15;;;10.77;;
35648;SDS011;21768;48.562;13.414;2022-10-22T08:32:03;16.38;;;10.75;;
35648;SDS011;21768;48.562;13.414;2022-10-22T08:34:28;18.52;;;10.18;;
35648;SDS011;21768;48.562;13.414;2022-10-22T08:36:54;26.40;;;14.93;;
35648;SDS011;21768;48.562;13.414;2022-10-22T08:39:20;30.17;;;15.90;;
35648;SDS011;21768;48.562;13.414;2022-10-22T08:44:38;18.17;;;10.18;;
35648;SDS011;21768;48.562;13.414;2022-10-22T08:49:47;17.55;;;10.07;;
35648;SDS011;21768;48.562;13.414;2022-10-22T08:52:13;14.80;;;9.93;;
35648;SDS011;21768;48.562;13.414;2022-10-22T08:54:51;16.27;;;9.45;;
35648;SDS011;21768;48.562;13.414;2022-10-22T08:57:24;21.95;;;11.75;;
35648;SDS011;21768;48.562;13.414;2022-10-22T09:00:36;17.95;;;9.98;;
35648;SDS011;21768;48.562;13.414;2022-10-22T09:08:43;14.63;;;7.93;;
35648;SDS011;21768;48.562;13.414;2022-10-22T09:13:42;14.30;;;8.48;;
35648;SDS011;21768;48.562;13.414;2022-10-22T09:26:20;17.92;;;10.35;;
35648;SDS011;21768;48.562;13.414;2022-10-22T09:28:48;15.88;;;8.93;;
35648;SDS011;21768;48.562;13.414;2022-10-22T09:31:14;18.30;;;10.77;;
35648;SDS011;21768;48.562;13.414;2022-10-22T09:33:42;22.15;;;12.13;;
35648;SDS011;21768;48.562;13.414;2022-10-22T09:36:12;25.15;;;12.77;;
35648;SDS011;21768;48.562;13.414;2022-10-22T09:38:43;20.52;;;11.77;;
35648;SDS011;21768;48.562;13.414;2022-10-22T09:41:11;18.85;;;12.43;;
35648;SDS011;21768;48.562;13.414;2022-10-22T09:43:37;25.90;;;11.55;;
35648;SDS011;21768;48.562;13.414;2022-10-22T09:46:03;20.75;;;13.82;;
35648;SDS011;21768;48.562;13.414;2022-10-22T10:05:23;15.43;;;8.63;;
35648;SDS011;21768;48.562;13.414;2022-10-22T10:07:50;26.00;;;10.30;;
35648;SDS011;21768;48.562;13.414;2022-10-22T10:10:17;17.13;;;9.05;;
35648;SDS011;21768;48.562;13.414;2022-10-22T10:12:53;13.75;;;8.88;;
35648;SDS011;21768;48.562;13.414;2022-10-22T10:15:28;23.42;;;8.13;;
35648;SDS011;21768;48.562;13.414;2022-10-22T10:18:17;20.90;;;8.40;;
35648;SDS011;21768;48.562;13.414;2022-10-22T10:21:00;12.23;;;7.03;;
35648;SDS011;21768;48.562;13.414;2022-10-22T10:26:12;15.80;;;6.80;;
35648;SDS011;21768;48.562;13.414;2022-10-22T10:31:55;12.60;;;6.88;;
35648;SDS011;21768;48.562;13.414;2022-10-22T10:34:57;13.02;;;6.95;;
35648;SDS011;21768;48.562;13.414;2022-10-22T10:37:46;12.10;;;6.90;;
35648;SDS011;21768;48.562;13.414;2022-10-22T10:45:56;15.85;;;6.53;;
35648;SDS011;21768;48.562;13.414;2022-10-22T10:56:57;9.00;;;5.32;;
35648;SDS011;21768;48.562;13.414;2022-10-22T11:07:21;12.15;;;6.10;;
35648;SDS011;21768;48.562;13.414;2022-10-22T11:09:56;7.68;;;5.40;;
35648;SDS011;21768;48.562;13.414;2022-10-22T11:12:28;10.48;;;6.05;;
35648;SDS011;21768;48.562;13.414;2022-10-22T11:15:15;14.88;;;5.88;;
35648;SDS011;21768;48.562;13.414;2022-10-22T11:17:58;10.30;;;5.50;;
35648;SDS011;21768;48.562;13.414;2022-10-22T11:23:26;8.18;;;5.00;;
35648;SDS011;21768;48.562;13.414;2022-10-22T11:25:56;9.93;;;5.10;;
35648;SDS011;21768;48.562;13.414;2022-10-22T11:31:07;9.95;;;5.47;;
35648;SDS011;21768;48.562;13.414;2022-10-22T11:33:43;7.50;;;4.07;;
35648;SDS011;21768;48.562;13.414;2022-10-22T11:36:15;7.88;;;4.45;;
35648;SDS011;21768;48.562;13.414;2022-10-22T11:38:46;8.57;;;4.20;;
35648;SDS011;21768;48.562;13.414;2022-10-22T11:41:12;9.40;;;3.25;;
35648;SDS011;21768;48.562;13.414;2022-10-22T11:46:54;11.50;;;3.60;;
35648;SDS011;21768;48.562;13.414;2022-10-22T11:49:42;6.22;;;3.38;;
35648;SDS011;21768;48.562;13.414;2022-10-22T11:52:26;9.15;;;3.33;;
35648;SDS011;21768;48.562;13.414;2022-10-22T11:55:10;8.07;;;3.38;;
35648;SDS011;21768;48.562;13.414;2022-10-22T11:57:56;2.95;;;1.80;;
35648;SDS011;21768;48.562;13.414;2022-10-22T12:00:40;5.22;;;1.58;;
35648;SDS011;21768;48.562;13.414;2022-10-22T12:03:22;2.88;;;1.15;;
35648;SDS011;21768;48.562;13.414;2022-10-22T12:08:58;6.55;;;1.60;;
35648;SDS011;21768;48.562;13.414;2022-10-22T12:11:36;7.05;;;1.33;;
35648;SDS011;21768;48.562;13.414;2022-10-22T12:16:43;2.05;;;1.30;;
35648;SDS011;21768;48.562;13.414;2022-10-22T12:19:20;1.65;;;0.98;;
35648;SDS011;21768;48.562;13.414;2022-10-22T12:22:40;5.22;;;1.15;;
35648;SDS011;21768;48.562;13.414;2022-10-22T12:24:55;4.03;;;1.55;;
35648;SDS011;21768;48.562;13.414;2022-10-22T12:30:00;2.25;;;1.17;;
35648;SDS011;21768;48.562;13.414;2022-10-22T12:32:35;4.38;;;1.40;;
35648;SDS011;21768;48.562;13.414;2022-10-22T12:35:06;6.45;;;1.30;;
35648;SDS011;21768;48.562;13.414;2022-10-22T12:37:34;2.67;;;1.65;;
35648;SDS011;21768;48.562;13.414;2022-10-22T12:40:01;2.90;;;1.63;;
35648;SDS011;21768;48.562;13.414;2022-10-22T12:42:45;8.90;;;3.55;;
35648;SDS011;21768;48.562;13.414;2022-10-22T12:45:12;16.25;;;2.90;;
35648;SDS011;21768;48.562;13.414;2022-10-22T12:47:37;6.35;;;1.65;;
35648;SDS011;21768;48.562;13.414;2022-10-22T12:50:03;2.15;;;1.35;;
35648;SDS011;21768;48.562;13.414;2022-10-22T12:52:29;1.55;;;1.05;;
35648;SDS011;21768;48.562;13.414;2022-10-22T12:54:54;4.93;;;2.15;;
35648;SDS011;21768;48.562;13.414;2022-10-22T12:57:20;12.88;;;2.50;;
35648;SDS011;21768;48.562;13.414;2022-10-22T12:59:47;7.55;;;2.83;;
35648;SDS011;21768;48.562;13.414;2022-10-22T13:02:25;6.28;;;2.08;;
35648;SDS011;21768;48.562;13.414;2022-10-22T13:07:37;2.10;;;1.30;;
35648;SDS011;21768;48.562;13.414;2022-10-22T13:10:16;2.92;;;1.40;;
35648;SDS011;21768;48.562;13.414;2022-10-22T13:12:49;4.10;;;2.30;;
35648;SDS011;21768;48.562;13.414;2022-10-22T13:15:19;5.07;;;1.80;;
35648;SDS011;21768;48.562;13.414;2022-10-22T13:18:04;4.88;;;1.00;;
35648;SDS011;21768;48.562;13.414;2022-10-22T13:20:48;2.97;;;1.10;;
35648;SDS011;21768;48.562;13.414;2022-10-22T13:23:19;2.60;;;1.30;;
35648;SDS011;21768;48.562;13.414;2022-10-22T13:25:55;6.25;;;1.58;;
35648;SDS011;21768;48.562;13.414;2022-10-22T13:28:23;3.67;;;1.13;;
35648;SDS011;21768;48.562;13.414;2022-10-22T13:30:54;5.35;;;1.65;;
35648;SDS011;21768;48.562;13.414;2022-10-22T13:33:23;5.72;;;1.30;;
35648;SDS011;21768;48.562;13.414;2022-10-22T13:35:53;3.72;;;1.40;;
35648;SDS011;21768;48.562;13.414;2022-10-22T13:38:21;3.45;;;1.20;;
35648;SDS011;21768;48.562;13.414;2022-10-22T13:40:48;5.93;;;1.20;;
35648;SDS011;21768;48.562;13.414;2022-10-22T13:43:14;11.88;;;1.65;;
35648;SDS011;21768;48.562;13.414;2022-10-22T13:45:40;5.50;;;1.50;;
35648;SDS011;21768;48.562;13.414;2022-10-22T13:48:07;2.60;;;1.17;;
35648;SDS011;21768;48.562;13.414;2022-10-22T13:50:41;3.88;;;1.38;;
35648;SDS011;21768;48.562;13.414;2022-10-22T13:53:14;1.58;;;1.00;;
35648;SDS011;21768;48.562;13.414;2022-10-22T13:55:43;5.78;;;3.78;;
35648;SDS011;21768;48.562;13.414;2022-10-22T13:58:12;3.40;;;1.95;;
35648;SDS011;21768;48.562;13.414;2022-10-22T14:00:43;2.63;;;1.50;;
35648;SDS011;21768;48.562;13.414;2022-10-22T14:03:11;2.10;;;1.05;;
35648;SDS011;21768;48.562;13.414;2022-10-22T14:05:39;1.98;;;1.00;;
35648;SDS011;21768;48.562;13.414;2022-10-22T14:08:10;6.05;;;5.43;;
35648;SDS011;21768;48.562;13.414;2022-10-22T14:10:37;5.32;;;2.97;;
35648;SDS011;21768;48.562;13.414;2022-10-22T14:13:05;3.90;;;1.45;;
35648;SDS011;21768;48.562;13.414;2022-10-22T14:15:31;4.63;;;2.97;;
35648;SDS011;21768;48.562;13.414;2022-10-22T14:17:57;3.17;;;1.75;;
35648;SDS011;21768;48.562;13.414;2022-10-22T14:20:25;4.50;;;2.08;;
35648;SDS011;21768;48.562;13.414;2022-10-22T14:22:54;2.15;;;1.42;;
35648;SDS011;21768;48.562;13.414;2022-10-22T14:25:24;7.75;;;2.38;;
35648;SDS011;21768;48.562;13.414;2022-10-22T14:27:50;3.33;;;2.17;;
35648;SDS011;21768;48.562;13.414;2022-10-22T14:30:17;4.75;;;2.50;;
35648;SDS011;21768;48.562;13.414;2022-10-22T14:32:44;10.95;;;2.50;;
35648;SDS011;21768;48.562;13.414;2022-10-22T14:35:13;9.68;;;2.03;;
35648;SDS011;21768;48.562;13.414;2022-10-22T14:37:40;7.63;;;2.17;;
35648;SDS011;21768;48.562;13.414;2022-10-22T14:40:06;7.20;;;1.90;;
35648;SDS011;21768;48.562;13.414;2022-10-22T14:42:37;1.52;;;1.02;;
35648;SDS011;21768;48.562;13.414;2022-10-22T14:45:06;3.50;;;1.23;;
35648;SDS011;21768;48.562;13.414;2022-10-22T14:47:43;7.85;;;2.47;;
35648;SDS011;21768;48.562;13.414;2022-10-22T14:50:08;6.22;;;1.67;;
35648;SDS011;21768;48.562;13.414;2022-10-22T14:52:34;5.80;;;0.90;;
35648;SDS011;21768;48.562;13.414;2022-10-22T14:55:00;4.55;;;1.05;;
35648;SDS011;21768;48.562;13.414;2022-10-22T14:57:25;4.25;;;1.25;;
35648;SDS011;21768;48.562;13.414;2022-10-22T14:59:51;5.15;;;1.10;;
35648;SDS011;21768;48.562;13.414;2022-10-22T15:02:19;2.05;;;1.10;;
35648;SDS011;21768;48.562;13.414;2022-10-22T15:04:45;3.63;;;0.90;;
35648;SDS011;21768;48.562;13.414;2022-10-22T15:07:10;2.45;;;0.93;;
35648;SDS011;21768;48.562;13.414;2022-10-22T15:09:35;3.08;;;1.05;;
35648;SDS011;21768;48.562;13.414;2022-10-22T15:12:01;2.35;;;1.10;;
35648;SDS011;21768;48.562;13.414;2022-10-22T15:14:26;3.53;;;1.20;;
35648;SDS011;21768;48.562;13.414;2022-10-22T15:16:51;2.70;;;0.77;;
35648;SDS011;21768;48.562;13.414;2022-10-22T15:19:17;7.40;;;0.95;;
35648;SDS011;21768;48.562;13.414;2022-10-22T15:21:42;1.65;;;1.05;;
35648;SDS011;21768;48.562;13.414;2022-10-22T15:24:08;3.53;;;1.10;;
35648;SDS011;21768;48.562;13.414;2022-10-22T15:26:33;9.75;;;1.20;;
35648;SDS011;21768;48.562;13.414;2022-10-22T15:29:00;5.28;;;1.05;;
35648;SDS011;21768;48.562;13.414;2022-10-22T15:34:21;3.75;;;1.17;;
35648;SDS011;21768;48.562;13.414;2022-10-22T15:36:50;1.98;;;0.80;;
35648;SDS011;21768;48.562;13.414;2022-10-22T15:39:17;4.38;;;0.70;;
35648;SDS011;21768;48.562;13.414;2022-10-22T15:41:43;1.83;;;0.88;;
35648;SDS011;21768;48.562;13.414;2022-10-22T15:44:12;2.72;;;0.90;;
35648;SDS011;21768;48.562;13.414;2022-10-22T15:46:40;8.30;;;0.90;;
35648;SDS011;21768;48.562;13.414;2022-10-22T15:49:05;2.67;;;0.77;;
35648;SDS011;21768;48.562;13.414;2022-10-22T15:51:30;4.20;;;0.90;;
35648;SDS011;21768;48.562;13.414;2022-10-22T15:53:57;5.95;;;0.90;;
35648;SDS011;21768;48.562;13.414;2022-10-22T15:56:23;2.80;;;0.70;;
35648;SDS011;21768;48.562;13.414;2022-10-22T15:58:57;2.42;;;1.02;;
35648;SDS011;21768;48.562;13.414;2022-10-22T16:01:25;3.08;;;1.10;;
35648;SDS011;21768;48.562;13.414;2022-10-22T16:03:51;5.15;;;1.92;;
35648;SDS011;21768;48.562;13.414;2022-10-22T16:06:24;6.45;;;1.27;;
35648;SDS011;21768;48.562;13.414;2022-10-22T16:08:51;4.35;;;1.20;;
35648;SDS011;21768;48.562;13.414;2022-10-22T16:11:16;3.20;;;0.90;;
35648;SDS011;21768;48.562;13.414;2022-10-22T16:13:42;5.43;;;1.20;;
35648;SDS011;21768;48.562;13.414;2022-10-22T16:16:07;6.80;;;1.25;;
35648;SDS011;21768;48.562;13.414;2022-10-22T16:18:33;3.97;;;1.10;;
35648;SDS011;21768;48.562;13.414;2022-10-22T16:20:58;2.90;;;1.30;;
35648;SDS011;21768;48.562;13.414;2022-10-22T16:23:23;9.55;;;1.55;;
35648;SDS011;21768;48.562;13.414;2022-10-22T16:25:49;3.83;;;1.70;;
35648;SDS011;21768;48.562;13.414;2022-10-22T16:28:14;2.90;;;1.42;;
35648;SDS011;21768;48.562;13.414;2022-10-22T16:30:40;3.72;;;1.50;;
35648;SDS011;21768;48.562;13.414;2022-10-22T16:33:06;3.50;;;1.48;;
35648;SDS011;21768;48.562;13.414;2022-10-22T16:35:32;1.48;;;1.02;;